createdAt,value
2022-10-22T00:04:51.669Z,99506.65
2022-10-22T00:09:55.729Z,99508.13
2022-10-22T00:15:03.886Z,99510.54
2022-10-22T00:20:08.859Z,99508.20
2022-10-22T00:25:12.175Z,99509.92
2022-10-22T00:30:16.218Z,99521.48
2022-10-22T00:35:20.681Z,99524.19
2022-10-22T00:40:24.359Z,99531.70
2022-10-22T00:45:29.784Z,99539.30
2022-10-22T00:50:43.363Z,99529.71
2022-10-22T00:55:53.008Z,99530.53
2022-10-22T01:00:57.245Z,99532.63
2022-10-22T01:06:05.670Z,99518.32
2022-10-22T01:11:41.241Z,99517.92
2022-10-22T01:16:51.065Z,99500.33
2022-10-22T01:22:06.227Z,99499.75
2022-10-22T01:27:44.168Z,99501.27
2022-10-22T01:32:53.429Z,99491.52
2022-10-22T01:38:02.255Z,99482.23
2022-10-22T01:43:09.823Z,99483.77
2022-10-22T01:48:27.819Z,99472.00
2022-10-22T01:53:37.520Z,99465.52
2022-10-22T01:58:49.472Z,99461.95
2022-10-22T02:04:23.637Z,99464.77
2022-10-22T02:09:30.117Z,99449.38
2022-10-22T02:14:38.222Z,99447.09
2022-10-22T02:19:49.413Z,99438.63
2022-10-22T02:24:53.709Z,99435.55
2022-10-22T02:30:20.003Z,99430.21
2022-10-22T02:35:27.133Z,99423.33
2022-10-22T02:40:32.362Z,99430.52
2022-10-22T02:45:39.751Z,99462.20
2022-10-22T02:50:43.826Z,99493.54
2022-10-22T02:55:47.721Z,99497.73
2022-10-22T03:00:52.897Z,99479.36
2022-10-22T03:05:57.898Z,99476.34
2022-10-22T03:11:01.751Z,99474.40
2022-10-22T03:16:06.771Z,99458.17
2022-10-22T03:21:25.190Z,99467.05
2022-10-22T03:26:29.862Z,99454.98
2022-10-22T03:31:33.201Z,99436.30
2022-10-22T03:36:37.637Z,99422.59
2022-10-22T03:41:42.684Z,99429.20
2022-10-22T03:46:45.704Z,99437.80
2022-10-22T03:51:49.617Z,99439.55
2022-10-22T03:56:53.468Z,99445.00
2022-10-22T04:01:56.575Z,99454.73
2022-10-22T04:07:00.558Z,99454.93
2022-10-22T04:12:10.215Z,99450.34
2022-10-22T04:17:14.312Z,99454.11
2022-10-22T04:22:18.687Z,99448.53
2022-10-22T04:27:22.683Z,99447.57
2022-10-22T04:32:28.785Z,99444.00
2022-10-22T04:37:33.541Z,99441.38
2022-10-22T04:42:38.512Z,99439.11
2022-10-22T04:47:42.895Z,99434.89
2022-10-22T04:52:47.226Z,99418.71
2022-10-22T04:57:51.662Z,99421.91
2022-10-22T05:02:56.421Z,99425.48
2022-10-22T05:07:59.974Z,99428.06
2022-10-22T05:13:05.191Z,99418.59
2022-10-22T05:18:09.126Z,99426.89
2022-10-22T05:23:13.247Z,99422.45
2022-10-22T05:28:16.605Z,99423.38
2022-10-22T05:33:24.143Z,99425.10
2022-10-22T05:38:28.914Z,99429.70
2022-10-22T05:43:33.066Z,99431.41
2022-10-22T05:48:37.502Z,99445.80
2022-10-22T05:53:43.081Z,99451.45
2022-10-22T05:58:48.556Z,99459.21
2022-10-22T06:03:56.971Z,99465.27
2022-10-22T06:09:32.180Z,99481.34
2022-10-22T06:14:35.244Z,99502.39
2022-10-22T06:19:38.900Z,99521.77
2022-10-22T06:24:45.177Z,99531.46
2022-10-22T06:29:48.803Z,99512.77
2022-10-22T06:34:53.084Z,99492.36
2022-10-22T06:39:56.201Z,99491.99
2022-10-22T06:50:10.394Z,99487.45
2022-10-22T06:55:14.664Z,99489.44
2022-10-22T07:00:19.034Z,99493.05
2022-10-22T07:05:23.385Z,99503.13
2022-10-22T07:10:30.049Z,99508.61
2022-10-22T07:15:36.101Z,99512.67
2022-10-22T07:20:40.785Z,99514.11
2022-10-22T07:25:45.652Z,99527.05
2022-10-22T07:30:50.196Z,99529.95
2022-10-22T07:35:59.122Z,99537.73
2022-10-22T07:41:03.184Z,99533.79
2022-10-22T07:46:09.385Z,99531.61
2022-10-22T07:51:14.897Z,99534.95
2022-10-22T07:56:20.272Z,99535.53
2022-10-22T08:01:24.692Z,99536.63
2022-10-22T08:06:29.308Z,99551.54
2022-10-22T08:11:33.837Z,99553.11
2022-10-22T08:16:36.951Z,99557.67
2022-10-22T08:21:40.404Z,99563.68
2022-10-22T08:26:43.766Z,99563.11
2022-10-22T08:31:47.605Z,99564.27
2022-10-22T08:36:52.368Z,99564.88
2022-10-22T08:42:29.866Z,99567.63
2022-10-22T08:47:43.749Z,99560.55
2022-10-22T08:52:54.667Z,99550.13
2022-10-22T08:58:20.728Z,99542.74
2022-10-22T09:03:54.532Z,99545.34
2022-10-22T09:09:00.491Z,99544.52
2022-10-22T09:14:05.569Z,99555.31
2022-10-22T09:19:27.773Z,99569.69
2022-10-22T09:24:44.663Z,99575.29
2022-10-22T09:29:49.806Z,99581.70
2022-10-22T09:34:58.771Z,99585.41
2022-10-22T09:40:07.237Z,99577.65
2022-10-22T09:45:25.443Z,99560.39
2022-10-22T09:50:44.233Z,99552.83
2022-10-22T09:55:58.276Z,99574.91
2022-10-22T10:01:06.119Z,99583.52
2022-10-22T10:06:13.349Z,99586.75
2022-10-22T10:11:18.323Z,99586.07
2022-10-22T10:16:29.926Z,99580.08
2022-10-22T10:21:59.831Z,99570.62
2022-10-22T10:27:29.415Z,99574.38
2022-10-22T10:32:43.821Z,99564.30
2022-10-22T10:38:06.808Z,99572.38
2022-10-22T10:43:36.680Z,99581.27
2022-10-22T10:49:00.596Z,99582.27
2022-10-22T10:54:30.522Z,99580.92
2022-10-22T11:00:09.411Z,99576.69
2022-10-22T11:05:38.335Z,99568.41
2022-10-22T11:10:53.449Z,99561.56
2022-10-22T11:16:30.156Z,99565.46
2022-10-22T11:21:42.800Z,99561.83
2022-10-22T11:26:54.045Z,99555.88
2022-10-22T11:32:00.000Z,99557.00
2022-10-22T11:37:05.415Z,99553.25
2022-10-22T11:42:50.560Z,99555.02
2022-10-22T11:48:12.285Z,99554.88
2022-10-22T11:53:15.343Z,99545.45
2022-10-22T11:58:31.020Z,99546.13
2022-10-22T12:03:34.957Z,99544.50
2022-10-22T12:08:53.482Z,99558.17
2022-10-22T12:14:15.323Z,99561.21
2022-10-22T12:19:24.879Z,99560.30
2022-10-22T12:24:37.594Z,99555.25
2022-10-22T12:29:41.829Z,99556.68
2022-10-22T12:34:53.827Z,99548.44
2022-10-22T12:39:57.791Z,99545.48
2022-10-22T12:45:01.908Z,99544.19
2022-10-22T12:50:06.515Z,99544.05
2022-10-22T12:55:17.542Z,99542.86
2022-10-22T13:00:27.835Z,99546.87
2022-10-22T13:05:39.888Z,99550.41
2022-10-22T13:10:51.315Z,99545.41
2022-10-22T13:15:56.477Z,99540.45
2022-10-22T13:21:03.931Z,99535.59
2022-10-22T13:26:13.494Z,99536.25
2022-10-22T13:31:24.328Z,99539.05
2022-10-22T13:36:28.603Z,99538.68
2022-10-22T13:41:35.044Z,99537.22
2022-10-22T13:46:43.112Z,99529.91
2022-10-22T13:51:48.442Z,99521.88
2022-10-22T13:56:53.113Z,99518.68
2022-10-22T14:01:59.882Z,99518.30
2022-10-22T14:07:04.269Z,99524.94
2022-10-22T14:12:16.773Z,99523.88
2022-10-22T14:17:20.169Z,99522.00
2022-10-22T14:22:29.330Z,99521.67
2022-10-22T14:27:33.302Z,99524.99
2022-10-22T14:32:36.861Z,99527.78
2022-10-22T14:37:42.766Z,99530.25
2022-10-22T14:42:48.318Z,99533.82
2022-10-22T14:47:52.730Z,99530.76
2022-10-22T14:52:59.295Z,99531.73
2022-10-22T14:58:02.704Z,99527.82
2022-10-22T15:03:06.537Z,99534.30
2022-10-22T15:08:10.839Z,99535.89
2022-10-22T15:13:15.210Z,99541.52
2022-10-22T15:18:18.725Z,99540.02
2022-10-22T15:23:22.762Z,99546.29
2022-10-22T15:28:27.569Z,99547.75
2022-10-22T15:33:31.615Z,99553.30
2022-10-22T15:38:35.080Z,99553.94
2022-10-22T15:43:38.832Z,99555.59
2022-10-22T15:48:43.659Z,99561.61
2022-10-22T15:54:09.253Z,99562.11
2022-10-22T15:59:16.470Z,99565.77
2022-10-22T16:04:22.342Z,99570.23
2022-10-22T16:09:28.360Z,99569.52
2022-10-22T16:14:31.732Z,99569.05
2022-10-22T16:19:35.173Z,99577.98
2022-10-22T16:24:42.451Z,99584.85
2022-10-22T16:29:46.033Z,99589.67
2022-10-22T16:34:49.654Z,99599.35
2022-10-22T16:39:56.388Z,99605.73
2022-10-22T16:45:00.526Z,99609.25
2022-10-22T16:50:04.328Z,99614.20
2022-10-22T16:55:08.774Z,99616.48
2022-10-22T17:00:16.372Z,99619.02
2022-10-22T17:05:22.889Z,99623.08
2022-10-22T17:10:28.491Z,99621.84
2022-10-22T17:15:34.753Z,99622.26
2022-10-22T17:20:44.443Z,99624.23
2022-10-22T17:25:50.079Z,99626.73
2022-10-22T17:31:09.904Z,99630.00
2022-10-22T17:36:14.484Z,99633.02
2022-10-22T17:41:24.316Z,99637.72
2022-10-22T17:46:32.108Z,99641.09
2022-10-22T17:51:35.843Z,99644.92
2022-10-22T17:56:44.335Z,99648.02
2022-10-22T18:01:54.744Z,99649.70
2022-10-22T18:07:02.520Z,99651.42
2022-10-22T18:12:09.449Z,99655.11
2022-10-22T18:17:15.996Z,99659.61
2022-10-22T18:22:22.616Z,99662.23
2022-10-22T18:27:31.308Z,99664.88
2022-10-22T18:32:36.310Z,99669.30
2022-10-22T18:37:43.768Z,99675.85
2022-10-22T18:42:49.892Z,99677.73
2022-10-22T18:47:55.324Z,99672.98
2022-10-22T18:53:00.369Z,99675.23
2022-10-22T18:58:06.488Z,99681.72
2022-10-22T19:03:15.837Z,99689.58
2022-10-22T19:08:21.656Z,99689.05
2022-10-22T19:13:26.711Z,99692.42
2022-10-22T19:18:32.300Z,99703.01
2022-10-22T19:23:37.466Z,99719.65
2022-10-22T19:28:43.573Z,99728.34
2022-10-22T19:33:49.169Z,99729.58
2022-10-22T19:38:54.779Z,99736.92
2022-10-22T19:44:01.261Z,99737.52
2022-10-22T19:49:09.846Z,99744.02
2022-10-22T19:54:21.357Z,99750.26
2022-10-22T19:59:29.966Z,99753.55
2022-10-22T20:04:37.446Z,99761.02
2022-10-22T20:09:45.158Z,99773.58
2022-10-22T20:14:51.606Z,99780.37
2022-10-22T20:19:57.404Z,99785.30
2022-10-22T20:25:02.604Z,99790.42
2022-10-22T20:30:08.501Z,99798.30
2022-10-22T20:35:15.284Z,99798.60
2022-10-22T20:40:22.323Z,99795.91
2022-10-22T20:45:28.058Z,99797.06
2022-10-22T20:50:33.192Z,99802.46
2022-10-22T20:55:38.128Z,99804.16
2022-10-22T21:00:44.476Z,99804.47
2022-10-22T21:05:49.138Z,99809.07
2022-10-22T21:10:53.195Z,99819.88
2022-10-22T21:15:57.182Z,99821.88
2022-10-22T21:21:01.378Z,99816.80
2022-10-22T21:26:06.287Z,99821.35
2022-10-22T21:31:11.158Z,99825.80
2022-10-22T21:36:18.991Z,99821.28
2022-10-22T21:41:25.124Z,99829.77
2022-10-22T21:46:29.163Z,99830.72
2022-10-22T21:51:36.825Z,99838.95
2022-10-22T21:56:41.244Z,99835.46
2022-10-22T22:01:44.963Z,99839.81
2022-10-22T22:06:48.443Z,99841.59
2022-10-22T22:11:51.903Z,99845.98
2022-10-22T22:16:58.348Z,99847.48
2022-10-22T22:22:01.878Z,99853.42
2022-10-22T22:27:05.686Z,99849.61
2022-10-22T22:32:10.948Z,99853.41
2022-10-22T22:37:15.173Z,99855.09
2022-10-22T22:42:18.669Z,99854.59
2022-10-22T22:47:23.615Z,99861.20
2022-10-22T22:52:27.636Z,99859.52
2022-10-22T22:57:31.342Z,99865.88
2022-10-22T23:02:35.502Z,99861.29
2022-10-22T23:07:39.967Z,99862.05
2022-10-22T23:12:44.704Z,99869.11
2022-10-22T23:17:51.818Z,99869.43
2022-10-22T23:22:56.598Z,99873.81
2022-10-22T23:28:01.213Z,99877.00
2022-10-22T23:33:05.327Z,99882.02
2022-10-22T23:38:09.690Z,99879.80
2022-10-22T23:43:13.980Z,99890.71
2022-10-22T23:48:18.574Z,99896.42
2022-10-22T23:53:23.405Z,99901.64
2022-10-22T23:58:27.133Z,99908.28
